sensor_id;sensor_type;location;lat;lon;timestamp;P1;durP1;ratioP1;P2;durP2;ratioP2
16119;SDS011;12670;53.502;10.252;2023-04-25T00:02:43;10.07;;;3.73;;
16119;SDS011;12670;53.502;10.252;2023-04-25T00:05:49;9.23;;;3.57;;
16119;SDS011;12670;53.502;10.252;2023-04-25T00:08:52;6.33;;;3.13;;
16119;SDS011;12670;53.502;10.252;2023-04-25T00:11:56;8.00;;;3.47;;
16119;SDS011;12670;53.502;10.252;2023-04-25T00:14:59;8.03;;;3.20;;
16119;SDS011;12670;53.502;10.252;2023-04-25T00:18:02;8.13;;;3.37;;
16119;SDS011;12670;53.502;10.252;2023-04-25T00:21:06;6.47;;;3.10;;
16119;SDS011;12670;53.502;10.252;2023-04-25T00:24:09;9.40;;;3.00;;
16119;SDS011;12670;53.502;10.252;2023-04-25T00:27:11;6.73;;;3.07;;
16119;SDS011;12670;53.502;10.252;2023-04-25T00:30:14;8.37;;;3.37;;
16119;SDS011;12670;53.502;10.252;2023-04-25T00:33:17;6.77;;;3.40;;
16119;SDS011;12670;53.502;10.252;2023-04-25T00:36:21;11.57;;;4.27;;
16119;SDS011;12670;53.502;10.252;2023-04-25T00:39:23;9.33;;;4.20;;
16119;SDS011;12670;53.502;10.252;2023-04-25T00:42:26;11.07;;;4.33;;
16119;SDS011;12670;53.502;10.252;2023-04-25T00:45:29;11.80;;;3.83;;
16119;SDS011;12670;53.502;10.252;2023-04-25T00:48:32;18.67;;;4.40;;
16119;SDS011;12670;53.502;10.252;2023-04-25T00:51:36;16.03;;;3.40;;
16119;SDS011;12670;53.502;10.252;2023-04-25T00:54:39;12.93;;;4.00;;
16119;SDS011;12670;53.502;10.252;2023-04-25T00:57:42;16.33;;;4.43;;
16119;SDS011;12670;53.502;10.252;2023-04-25T01:00:45;15.93;;;4.13;;
16119;SDS011;12670;53.502;10.252;2023-04-25T01:03:48;15.70;;;4.27;;
16119;SDS011;12670;53.502;10.252;2023-04-25T01:06:54;16.03;;;3.70;;
16119;SDS011;12670;53.502;10.252;2023-04-25T01:09:56;22.67;;;4.30;;
16119;SDS011;12670;53.502;10.252;2023-04-25T01:13:00;17.40;;;3.57;;
16119;SDS011;12670;53.502;10.252;2023-04-25T01:16:02;22.37;;;4.43;;
16119;SDS011;12670;53.502;10.252;2023-04-25T01:19:06;19.63;;;3.87;;
16119;SDS011;12670;53.502;10.252;2023-04-25T01:22:13;23.60;;;4.30;;
16119;SDS011;12670;53.502;10.252;2023-04-25T01:25:16;22.87;;;3.70;;
16119;SDS011;12670;53.502;10.252;2023-04-25T01:28:19;27.70;;;4.87;;
16119;SDS011;12670;53.502;10.252;2023-04-25T01:31:23;26.20;;;4.00;;
16119;SDS011;12670;53.502;10.252;2023-04-25T01:34:26;25.40;;;4.43;;
16119;SDS011;12670;53.502;10.252;2023-04-25T01:37:30;23.97;;;3.97;;
16119;SDS011;12670;53.502;10.252;2023-04-25T01:40:32;34.60;;;4.87;;
16119;SDS011;12670;53.502;10.252;2023-04-25T01:43:36;28.50;;;4.07;;
16119;SDS011;12670;53.502;10.252;2023-04-25T01:46:38;24.60;;;4.67;;
16119;SDS011;12670;53.502;10.252;2023-04-25T01:49:41;39.17;;;5.93;;
16119;SDS011;12670;53.502;10.252;2023-04-25T01:52:45;25.47;;;4.40;;
16119;SDS011;12670;53.502;10.252;2023-04-25T01:55:48;19.20;;;4.47;;
16119;SDS011;12670;53.502;10.252;2023-04-25T01:58:51;27.67;;;5.37;;
16119;SDS011;12670;53.502;10.252;2023-04-25T02:01:53;29.47;;;4.53;;
16119;SDS011;12670;53.502;10.252;2023-04-25T02:04:56;29.60;;;4.63;;
16119;SDS011;12670;53.502;10.252;2023-04-25T02:08:00;27.63;;;5.20;;
16119;SDS011;12670;53.502;10.252;2023-04-25T02:11:03;25.23;;;5.10;;
16119;SDS011;12670;53.502;10.252;2023-04-25T02:14:05;29.10;;;4.10;;
16119;SDS011;12670;53.502;10.252;2023-04-25T02:17:08;26.37;;;5.43;;
16119;SDS011;12670;53.502;10.252;2023-04-25T02:20:11;33.23;;;6.33;;
16119;SDS011;12670;53.502;10.252;2023-04-25T02:23:15;28.90;;;4.87;;
16119;SDS011;12670;53.502;10.252;2023-04-25T02:26:20;35.73;;;5.50;;
16119;SDS011;12670;53.502;10.252;2023-04-25T02:29:24;27.10;;;4.67;;
16119;SDS011;12670;53.502;10.252;2023-04-25T02:32:27;18.93;;;4.47;;
16119;SDS011;12670;53.502;10.252;2023-04-25T02:35:30;24.63;;;4.13;;
16119;SDS011;12670;53.502;10.252;2023-04-25T02:38:34;26.63;;;5.03;;
16119;SDS011;12670;53.502;10.252;2023-04-25T02:41:36;29.83;;;4.77;;
16119;SDS011;12670;53.502;10.252;2023-04-25T02:44:39;23.63;;;4.40;;
16119;SDS011;12670;53.502;10.252;2023-04-25T02:47:41;30.07;;;4.80;;
16119;SDS011;12670;53.502;10.252;2023-04-25T02:50:44;28.53;;;5.07;;
16119;SDS011;12670;53.502;10.252;2023-04-25T02:53:48;30.63;;;5.27;;
16119;SDS011;12670;53.502;10.252;2023-04-25T02:56:51;25.90;;;4.90;;
16119;SDS011;12670;53.502;10.252;2023-04-25T02:59:54;36.93;;;5.37;;
16119;SDS011;12670;53.502;10.252;2023-04-25T03:02:56;28.70;;;4.77;;
16119;SDS011;12670;53.502;10.252;2023-04-25T03:05:59;29.37;;;4.67;;
16119;SDS011;12670;53.502;10.252;2023-04-25T03:09:03;25.80;;;4.70;;
16119;SDS011;12670;53.502;10.252;2023-04-25T03:12:06;26.90;;;4.57;;
16119;SDS011;12670;53.502;10.252;2023-04-25T03:15:09;29.17;;;5.07;;
16119;SDS011;12670;53.502;10.252;2023-04-25T03:18:12;27.00;;;3.97;;
16119;SDS011;12670;53.502;10.252;2023-04-25T03:21:14;26.47;;;4.90;;
16119;SDS011;12670;53.502;10.252;2023-04-25T03:24:18;22.10;;;4.07;;
16119;SDS011;12670;53.502;10.252;2023-04-25T03:27:21;25.27;;;4.80;;
16119;SDS011;12670;53.502;10.252;2023-04-25T03:30:24;20.27;;;3.83;;
16119;SDS011;12670;53.502;10.252;2023-04-25T03:33:27;19.03;;;3.93;;
16119;SDS011;12670;53.502;10.252;2023-04-25T03:36:29;25.13;;;4.10;;
16119;SDS011;12670;53.502;10.252;2023-04-25T03:39:35;32.97;;;4.10;;
16119;SDS011;12670;53.502;10.252;2023-04-25T03:42:38;22.67;;;4.13;;
16119;SDS011;12670;53.502;10.252;2023-04-25T03:45:43;30.37;;;4.60;;
16119;SDS011;12670;53.502;10.252;2023-04-25T03:48:45;25.00;;;4.50;;
16119;SDS011;12670;53.502;10.252;2023-04-25T03:51:48;20.93;;;4.03;;
16119;SDS011;12670;53.502;10.252;2023-04-25T03:54:52;19.17;;;3.67;;
16119;SDS011;12670;53.502;10.252;2023-04-25T03:57:54;30.83;;;4.57;;
16119;SDS011;12670;53.502;10.252;2023-04-25T04:00:59;23.30;;;3.80;;
16119;SDS011;12670;53.502;10.252;2023-04-25T04:04:03;21.17;;;3.80;;
16119;SDS011;12670;53.502;10.252;2023-04-25T04:07:06;23.00;;;3.97;;
16119;SDS011;12670;53.502;10.252;2023-04-25T04:10:11;22.20;;;4.07;;
16119;SDS011;12670;53.502;10.252;2023-04-25T04:13:14;20.77;;;3.70;;
16119;SDS011;12670;53.502;10.252;2023-04-25T04:16:16;18.93;;;3.50;;
16119;SDS011;12670;53.502;10.252;2023-04-25T04:19:19;26.07;;;3.93;;
16119;SDS011;12670;53.502;10.252;2023-04-25T04:22:22;20.33;;;3.60;;
16119;SDS011;12670;53.502;10.252;2023-04-25T04:25:27;25.20;;;3.90;;
16119;SDS011;12670;53.502;10.252;2023-04-25T04:28:29;34.10;;;4.90;;
16119;SDS011;12670;53.502;10.252;2023-04-25T04:31:32;22.67;;;3.77;;
16119;SDS011;12670;53.502;10.252;2023-04-25T04:34:35;24.03;;;3.97;;
16119;SDS011;12670;53.502;10.252;2023-04-25T04:37:38;32.10;;;3.93;;
16119;SDS011;12670;53.502;10.252;2023-04-25T04:40:42;14.07;;;3.17;;
16119;SDS011;12670;53.502;10.252;2023-04-25T04:43:45;19.03;;;3.53;;
16119;SDS011;12670;53.502;10.252;2023-04-25T04:46:48;19.63;;;3.47;;
16119;SDS011;12670;53.502;10.252;2023-04-25T04:49:51;23.50;;;3.60;;
16119;SDS011;12670;53.502;10.252;2023-04-25T04:52:54;19.80;;;3.20;;
16119;SDS011;12670;53.502;10.252;2023-04-25T04:55:58;25.77;;;4.27;;
16119;SDS011;12670;53.502;10.252;2023-04-25T04:59:01;19.73;;;3.83;;
16119;SDS011;12670;53.502;10.252;2023-04-25T05:02:04;16.40;;;3.17;;
16119;SDS011;12670;53.502;10.252;2023-04-25T05:05:06;18.93;;;3.70;;
16119;SDS011;12670;53.502;10.252;2023-04-25T05:08:10;16.23;;;2.90;;
16119;SDS011;12670;53.502;10.252;2023-04-25T05:11:13;24.80;;;4.07;;
16119;SDS011;12670;53.502;10.252;2023-04-25T05:14:16;14.10;;;2.93;;
16119;SDS011;12670;53.502;10.252;2023-04-25T05:17:19;16.63;;;3.47;;
16119;SDS011;12670;53.502;10.252;2023-04-25T05:20:22;24.00;;;4.17;;
16119;SDS011;12670;53.502;10.252;2023-04-25T05:23:25;18.10;;;3.43;;
16119;SDS011;12670;53.502;10.252;2023-04-25T05:26:30;13.47;;;3.43;;
16119;SDS011;12670;53.502;10.252;2023-04-25T05:29:33;17.93;;;3.73;;
16119;SDS011;12670;53.502;10.252;2023-04-25T05:32:36;13.03;;;3.10;;
16119;SDS011;12670;53.502;10.252;2023-04-25T05:35:38;19.33;;;3.13;;
16119;SDS011;12670;53.502;10.252;2023-04-25T05:38:41;17.70;;;4.27;;
16119;SDS011;12670;53.502;10.252;2023-04-25T05:41:45;22.53;;;3.43;;
16119;SDS011;12670;53.502;10.252;2023-04-25T05:44:48;26.43;;;3.87;;
16119;SDS011;12670;53.502;10.252;2023-04-25T05:47:51;19.40;;;4.17;;
16119;SDS011;12670;53.502;10.252;2023-04-25T05:50:54;19.23;;;3.37;;
16119;SDS011;12670;53.502;10.252;2023-04-25T05:53:57;16.53;;;3.33;;
16119;SDS011;12670;53.502;10.252;2023-04-25T05:57:01;21.47;;;3.67;;
16119;SDS011;12670;53.502;10.252;2023-04-25T06:00:04;19.63;;;4.53;;
16119;SDS011;12670;53.502;10.252;2023-04-25T06:03:10;18.03;;;3.67;;
16119;SDS011;12670;53.502;10.252;2023-04-25T06:06:17;20.37;;;3.47;;
16119;SDS011;12670;53.502;10.252;2023-04-25T06:09:19;26.07;;;3.97;;
16119;SDS011;12670;53.502;10.252;2023-04-25T06:12:23;15.47;;;3.57;;
16119;SDS011;12670;53.502;10.252;2023-04-25T06:15:26;20.90;;;3.80;;
16119;SDS011;12670;53.502;10.252;2023-04-25T06:18:29;19.70;;;3.50;;
16119;SDS011;12670;53.502;10.252;2023-04-25T06:21:32;16.73;;;3.77;;
16119;SDS011;12670;53.502;10.252;2023-04-25T06:24:34;14.87;;;3.30;;
16119;SDS011;12670;53.502;10.252;2023-04-25T06:27:38;14.20;;;3.60;;
16119;SDS011;12670;53.502;10.252;2023-04-25T06:30:41;16.77;;;3.30;;
16119;SDS011;12670;53.502;10.252;2023-04-25T06:33:44;15.00;;;4.10;;
16119;SDS011;12670;53.502;10.252;2023-04-25T06:36:46;20.80;;;3.83;;
16119;SDS011;12670;53.502;10.252;2023-04-25T06:39:49;14.63;;;3.00;;
16119;SDS011;12670;53.502;10.252;2023-04-25T06:42:53;21.60;;;3.50;;
16119;SDS011;12670;53.502;10.252;2023-04-25T06:45:55;22.17;;;3.70;;
16119;SDS011;12670;53.502;10.252;2023-04-25T06:48:58;12.73;;;2.60;;
16119;SDS011;12670;53.502;10.252;2023-04-25T06:52:01;11.37;;;3.20;;
16119;SDS011;12670;53.502;10.252;2023-04-25T06:55:04;15.83;;;3.13;;
16119;SDS011;12670;53.502;10.252;2023-04-25T06:58:08;24.30;;;4.43;;
16119;SDS011;12670;53.502;10.252;2023-04-25T07:01:11;22.03;;;2.90;;
16119;SDS011;12670;53.502;10.252;2023-04-25T07:04:14;13.53;;;3.03;;
16119;SDS011;12670;53.502;10.252;2023-04-25T07:07:17;18.63;;;3.30;;
16119;SDS011;12670;53.502;10.252;2023-04-25T07:10:20;14.07;;;2.63;;
16119;SDS011;12670;53.502;10.252;2023-04-25T07:13:24;14.40;;;2.80;;
16119;SDS011;12670;53.502;10.252;2023-04-25T07:16:27;12.77;;;3.10;;
16119;SDS011;12670;53.502;10.252;2023-04-25T07:19:29;12.30;;;2.80;;
16119;SDS011;12670;53.502;10.252;2023-04-25T07:22:32;14.80;;;2.90;;
16119;SDS011;12670;53.502;10.252;2023-04-25T07:25:35;15.67;;;2.77;;
16119;SDS011;12670;53.502;10.252;2023-04-25T07:28:39;17.43;;;3.40;;
16119;SDS011;12670;53.502;10.252;2023-04-25T07:31:41;19.03;;;3.63;;
16119;SDS011;12670;53.502;10.252;2023-04-25T07:34:44;16.53;;;2.93;;
16119;SDS011;12670;53.502;10.252;2023-04-25T07:37:47;15.50;;;3.50;;
16119;SDS011;12670;53.502;10.252;2023-04-25T07:40:49;16.60;;;3.20;;
16119;SDS011;12670;53.502;10.252;2023-04-25T07:43:53;12.40;;;2.90;;
16119;SDS011;12670;53.502;10.252;2023-04-25T07:46:56;19.60;;;2.93;;
16119;SDS011;12670;53.502;10.252;2023-04-25T07:49:58;15.87;;;3.00;;
16119;SDS011;12670;53.502;10.252;2023-04-25T07:53:01;15.67;;;2.57;;
16119;SDS011;12670;53.502;10.252;2023-04-25T07:56:04;27.60;;;3.40;;
16119;SDS011;12670;53.502;10.252;2023-04-25T07:59:09;14.00;;;2.63;;
16119;SDS011;12670;53.502;10.252;2023-04-25T08:02:11;13.03;;;2.50;;
16119;SDS011;12670;53.502;10.252;2023-04-25T08:05:14;10.23;;;2.33;;
16119;SDS011;12670;53.502;10.252;2023-04-25T08:08:21;13.03;;;2.93;;
16119;SDS011;12670;53.502;10.252;2023-04-25T08:11:24;10.87;;;2.70;;
16119;SDS011;12670;53.502;10.252;2023-04-25T08:14:28;21.90;;;3.80;;
16119;SDS011;12670;53.502;10.252;2023-04-25T08:17:36;17.53;;;3.00;;
16119;SDS011;12670;53.502;10.252;2023-04-25T08:20:39;14.33;;;3.10;;
16119;SDS011;12670;53.502;10.252;2023-04-25T08:23:42;11.37;;;2.50;;
16119;SDS011;12670;53.502;10.252;2023-04-25T08:26:45;11.27;;;2.83;;
16119;SDS011;12670;53.502;10.252;2023-04-25T08:29:49;11.40;;;2.63;;
16119;SDS011;12670;53.502;10.252;2023-04-25T08:32:52;12.03;;;2.63;;
16119;SDS011;12670;53.502;10.252;2023-04-25T08:35:55;13.73;;;2.73;;
16119;SDS011;12670;53.502;10.252;2023-04-25T08:38:58;10.57;;;2.53;;
16119;SDS011;12670;53.502;10.252;2023-04-25T08:42:01;17.77;;;3.10;;
16119;SDS011;12670;53.502;10.252;2023-04-25T08:45:10;13.67;;;2.53;;
16119;SDS011;12670;53.502;10.252;2023-04-25T08:48:13;15.47;;;2.80;;
16119;SDS011;12670;53.502;10.252;2023-04-25T08:51:20;18.70;;;2.40;;
16119;SDS011;12670;53.502;10.252;2023-04-25T08:54:25;13.30;;;2.37;;
16119;SDS011;12670;53.502;10.252;2023-04-25T08:57:36;11.40;;;2.27;;
16119;SDS011;12670;53.502;10.252;2023-04-25T09:00:40;14.33;;;2.10;;
16119;SDS011;12670;53.502;10.252;2023-04-25T09:03:43;14.00;;;2.77;;
16119;SDS011;12670;53.502;10.252;2023-04-25T09:06:46;14.67;;;2.63;;
16119;SDS011;12670;53.502;10.252;2023-04-25T09:09:49;9.40;;;2.23;;
16119;SDS011;12670;53.502;10.252;2023-04-25T09:13:04;10.33;;;2.30;;
16119;SDS011;12670;53.502;10.252;2023-04-25T09:16:11;9.50;;;2.17;;
16119;SDS011;12670;53.502;10.252;2023-04-25T09:19:20;12.53;;;2.20;;
16119;SDS011;12670;53.502;10.252;2023-04-25T09:22:40;13.73;;;2.03;;
16119;SDS011;12670;53.502;10.252;2023-04-25T09:25:43;13.60;;;2.23;;
16119;SDS011;12670;53.502;10.252;2023-04-25T09:28:47;16.60;;;2.30;;
16119;SDS011;12670;53.502;10.252;2023-04-25T09:31:51;7.73;;;1.87;;
16119;SDS011;12670;53.502;10.252;2023-04-25T09:34:54;16.27;;;2.43;;
16119;SDS011;12670;53.502;10.252;2023-04-25T09:37:58;6.27;;;1.57;;
16119;SDS011;12670;53.502;10.252;2023-04-25T09:41:01;16.90;;;2.20;;
16119;SDS011;12670;53.502;10.252;2023-04-25T09:44:04;12.50;;;2.13;;
16119;SDS011;12670;53.502;10.252;2023-04-25T09:47:09;10.10;;;1.80;;
16119;SDS011;12670;53.502;10.252;2023-04-25T09:50:15;8.60;;;1.90;;
16119;SDS011;12670;53.502;10.252;2023-04-25T09:53:20;11.37;;;1.93;;
16119;SDS011;12670;53.502;10.252;2023-04-25T09:56:22;12.10;;;2.13;;
16119;SDS011;12670;53.502;10.252;2023-04-25T09:59:26;10.90;;;2.23;;
16119;SDS011;12670;53.502;10.252;2023-04-25T10:02:34;13.13;;;2.00;;
16119;SDS011;12670;53.502;10.252;2023-04-25T10:05:38;12.80;;;1.60;;
16119;SDS011;12670;53.502;10.252;2023-04-25T10:08:41;10.03;;;2.00;;
16119;SDS011;12670;53.502;10.252;2023-04-25T10:11:45;8.77;;;1.83;;
16119;SDS011;12670;53.502;10.252;2023-04-25T10:14:49;8.27;;;1.90;;
16119;SDS011;12670;53.502;10.252;2023-04-25T10:17:53;7.10;;;1.63;;
16119;SDS011;12670;53.502;10.252;2023-04-25T10:20:57;10.37;;;1.57;;
16119;SDS011;12670;53.502;10.252;2023-04-25T10:24:02;10.73;;;2.00;;
16119;SDS011;12670;53.502;10.252;2023-04-25T10:27:05;9.83;;;2.00;;
16119;SDS011;12670;53.502;10.252;2023-04-25T10:30:09;10.13;;;2.10;;
16119;SDS011;12670;53.502;10.252;2023-04-25T10:33:18;10.10;;;1.90;;
16119;SDS011;12670;53.502;10.252;2023-04-25T10:36:21;10.47;;;2.43;;
16119;SDS011;12670;53.502;10.252;2023-04-25T10:39:26;9.20;;;1.70;;
16119;SDS011;12670;53.502;10.252;2023-04-25T10:42:29;11.40;;;2.30;;
16119;SDS011;12670;53.502;10.252;2023-04-25T10:45:34;7.47;;;1.37;;
16119;SDS011;12670;53.502;10.252;2023-04-25T10:48:55;9.43;;;1.50;;
16119;SDS011;12670;53.502;10.252;2023-04-25T10:52:18;9.30;;;1.80;;
16119;SDS011;12670;53.502;10.252;2023-04-25T10:55:32;8.60;;;1.50;;
16119;SDS011;12670;53.502;10.252;2023-04-25T10:58:53;10.20;;;1.93;;
16119;SDS011;12670;53.502;10.252;2023-04-25T11:02:11;8.53;;;1.77;;
16119;SDS011;12670;53.502;10.252;2023-04-25T11:05:20;8.30;;;2.27;;
16119;SDS011;12670;53.502;10.252;2023-04-25T11:08:28;8.90;;;1.87;;
16119;SDS011;12670;53.502;10.252;2023-04-25T11:11:47;11.87;;;1.90;;
16119;SDS011;12670;53.502;10.252;2023-04-25T11:14:58;6.00;;;1.57;;
16119;SDS011;12670;53.502;10.252;2023-04-25T11:18:02;10.73;;;1.60;;
16119;SDS011;12670;53.502;10.252;2023-04-25T11:21:06;11.13;;;2.00;;
16119;SDS011;12670;53.502;10.252;2023-04-25T11:24:09;7.73;;;1.83;;
16119;SDS011;12670;53.502;10.252;2023-04-25T11:27:12;9.93;;;2.17;;
16119;SDS011;12670;53.502;10.252;2023-04-25T11:30:15;7.03;;;1.70;;
16119;SDS011;12670;53.502;10.252;2023-04-25T11:33:22;7.73;;;1.97;;
16119;SDS011;12670;53.502;10.252;2023-04-25T11:36:27;9.33;;;2.73;;
16119;SDS011;12670;53.502;10.252;2023-04-25T11:39:29;8.17;;;1.97;;
16119;SDS011;12670;53.502;10.252;2023-04-25T11:42:32;7.83;;;1.73;;
16119;SDS011;12670;53.502;10.252;2023-04-25T11:45:36;9.40;;;1.83;;
16119;SDS011;12670;53.502;10.252;2023-04-25T11:48:39;5.03;;;1.63;;
16119;SDS011;12670;53.502;10.252;2023-04-25T11:51:44;7.27;;;1.80;;
16119;SDS011;12670;53.502;10.252;2023-04-25T11:54:48;9.23;;;1.93;;
16119;SDS011;12670;53.502;10.252;2023-04-25T11:57:50;10.93;;;1.77;;
16119;SDS011;12670;53.502;10.252;2023-04-25T12:00:53;7.27;;;1.60;;
16119;SDS011;12670;53.502;10.252;2023-04-25T12:04:09;7.20;;;1.23;;
16119;SDS011;12670;53.502;10.252;2023-04-25T12:07:15;3.57;;;1.10;;
16119;SDS011;12670;53.502;10.252;2023-04-25T12:10:19;5.70;;;1.50;;
16119;SDS011;12670;53.502;10.252;2023-04-25T12:13:23;7.93;;;1.40;;
16119;SDS011;12670;53.502;10.252;2023-04-25T12:16:27;8.80;;;1.57;;
16119;SDS011;12670;53.502;10.252;2023-04-25T12:19:31;10.77;;;2.43;;
16119;SDS011;12670;53.502;10.252;2023-04-25T12:22:36;7.40;;;1.70;;
16119;SDS011;12670;53.502;10.252;2023-04-25T12:25:39;7.70;;;1.80;;
16119;SDS011;12670;53.502;10.252;2023-04-25T12:28:44;9.30;;;1.50;;
16119;SDS011;12670;53.502;10.252;2023-04-25T12:31:48;9.53;;;1.77;;
16119;SDS011;12670;53.502;10.252;2023-04-25T12:34:52;8.60;;;1.70;;
16119;SDS011;12670;53.502;10.252;2023-04-25T12:37:56;4.20;;;1.40;;
16119;SDS011;12670;53.502;10.252;2023-04-25T12:40:59;6.90;;;1.33;;
16119;SDS011;12670;53.502;10.252;2023-04-25T12:44:02;6.90;;;1.40;;
16119;SDS011;12670;53.502;10.252;2023-04-25T12:47:04;8.60;;;1.50;;
16119;SDS011;12670;53.502;10.252;2023-04-25T12:50:08;5.73;;;1.20;;
16119;SDS011;12670;53.502;10.252;2023-04-25T12:53:12;8.53;;;1.50;;
16119;SDS011;12670;53.502;10.252;2023-04-25T12:56:15;6.87;;;1.10;;
16119;SDS011;12670;53.502;10.252;2023-04-25T12:59:18;4.47;;;1.20;;
16119;SDS011;12670;53.502;10.252;2023-04-25T13:02:21;8.07;;;1.73;;
16119;SDS011;12670;53.502;10.252;2023-04-25T13:05:24;6.20;;;1.23;;
16119;SDS011;12670;53.502;10.252;2023-04-25T13:08:28;6.37;;;1.50;;
16119;SDS011;12670;53.502;10.252;2023-04-25T13:11:32;6.00;;;1.23;;
16119;SDS011;12670;53.502;10.252;2023-04-25T13:14:34;5.97;;;1.93;;
16119;SDS011;12670;53.502;10.252;2023-04-25T13:17:37;6.47;;;1.80;;
16119;SDS011;12670;53.502;10.252;2023-04-25T13:20:40;13.23;;;1.70;;
16119;SDS011;12670;53.502;10.252;2023-04-25T13:23:44;10.90;;;2.17;;
16119;SDS011;12670;53.502;10.252;2023-04-25T13:26:47;9.17;;;1.70;;
16119;SDS011;12670;53.502;10.252;2023-04-25T13:29:50;11.67;;;2.03;;
16119;SDS011;12670;53.502;10.252;2023-04-25T13:32:53;6.00;;;1.47;;
16119;SDS011;12670;53.502;10.252;2023-04-25T13:35:57;11.60;;;1.73;;
16119;SDS011;12670;53.502;10.252;2023-04-25T13:39:01;6.87;;;2.60;;
16119;SDS011;12670;53.502;10.252;2023-04-25T13:42:05;4.47;;;1.77;;
16119;SDS011;12670;53.502;10.252;2023-04-25T13:45:08;10.73;;;3.90;;
16119;SDS011;12670;53.502;10.252;2023-04-25T13:48:11;8.50;;;1.93;;
16119;SDS011;12670;53.502;10.252;2023-04-25T13:51:14;13.93;;;3.37;;
16119;SDS011;12670;53.502;10.252;2023-04-25T13:54:22;6.27;;;1.90;;
16119;SDS011;12670;53.502;10.252;2023-04-25T13:57:24;9.50;;;2.00;;
16119;SDS011;12670;53.502;10.252;2023-04-25T14:00:27;8.60;;;1.80;;
16119;SDS011;12670;53.502;10.252;2023-04-25T14:03:30;16.63;;;4.23;;
16119;SDS011;12670;53.502;10.252;2023-04-25T14:06:33;9.00;;;2.00;;
16119;SDS011;12670;53.502;10.252;2023-04-25T14:09:37;12.00;;;1.90;;
16119;SDS011;12670;53.502;10.252;2023-04-25T14:12:40;12.53;;;2.10;;
16119;SDS011;12670;53.502;10.252;2023-04-25T14:15:43;6.30;;;1.73;;
16119;SDS011;12670;53.502;10.252;2023-04-25T14:18:45;8.63;;;1.77;;
16119;SDS011;12670;53.502;10.252;2023-04-25T14:21:48;4.70;;;1.43;;
16119;SDS011;12670;53.502;10.252;2023-04-25T14:24:52;3.97;;;1.43;;
16119;SDS011;12670;53.502;10.252;2023-04-25T14:27:55;4.77;;;1.53;;
16119;SDS011;12670;53.502;10.252;2023-04-25T14:30:57;11.43;;;2.00;;
16119;SDS011;12670;53.502;10.252;2023-04-25T14:34:01;10.23;;;2.47;;
16119;SDS011;12670;53.502;10.252;2023-04-25T14:37:04;6.30;;;1.80;;
16119;SDS011;12670;53.502;10.252;2023-04-25T14:40:08;6.47;;;1.77;;
16119;SDS011;12670;53.502;10.252;2023-04-25T14:43:13;6.80;;;1.50;;
16119;SDS011;12670;53.502;10.252;2023-04-25T14:46:15;11.23;;;2.27;;
16119;SDS011;12670;53.502;10.252;2023-04-25T14:49:18;14.70;;;1.73;;
16119;SDS011;12670;53.502;10.252;2023-04-25T14:52:21;9.43;;;1.83;;
16119;SDS011;12670;53.502;10.252;2023-04-25T14:55:25;11.90;;;1.73;;
16119;SDS011;12670;53.502;10.252;2023-04-25T14:58:28;9.13;;;1.80;;
16119;SDS011;12670;53.502;10.252;2023-04-25T15:01:31;6.43;;;1.80;;
16119;SDS011;12670;53.502;10.252;2023-04-25T15:04:34;8.37;;;1.70;;
16119;SDS011;12670;53.502;10.252;2023-04-25T15:07:37;9.13;;;1.60;;
16119;SDS011;12670;53.502;10.252;2023-04-25T15:10:41;7.20;;;2.03;;
16119;SDS011;12670;53.502;10.252;2023-04-25T15:13:45;13.80;;;2.27;;
16119;SDS011;12670;53.502;10.252;2023-04-25T15:16:47;9.83;;;1.73;;
16119;SDS011;12670;53.502;10.252;2023-04-25T15:19:50;11.70;;;2.43;;
16119;SDS011;12670;53.502;10.252;2023-04-25T15:22:53;9.80;;;2.10;;
16119;SDS011;12670;53.502;10.252;2023-04-25T15:25:57;4.33;;;1.33;;
16119;SDS011;12670;53.502;10.252;2023-04-25T15:28:59;6.70;;;1.53;;
16119;SDS011;12670;53.502;10.252;2023-04-25T15:32:02;7.93;;;2.07;;
16119;SDS011;12670;53.502;10.252;2023-04-25T15:35:05;6.53;;;2.00;;
16119;SDS011;12670;53.502;10.252;2023-04-25T15:38:08;9.13;;;1.87;;
16119;SDS011;12670;53.502;10.252;2023-04-25T15:41:13;23.33;;;2.20;;
16119;SDS011;12670;53.502;10.252;2023-04-25T15:44:16;12.87;;;2.17;;
16119;SDS011;12670;53.502;10.252;2023-04-25T15:47:19;9.57;;;1.77;;
16119;SDS011;12670;53.502;10.252;2023-04-25T15:50:22;10.40;;;2.17;;
16119;SDS011;12670;53.502;10.252;2023-04-25T15:53:25;15.17;;;3.80;;
16119;SDS011;12670;53.502;10.252;2023-04-25T15:56:29;10.63;;;2.47;;
16119;SDS011;12670;53.502;10.252;2023-04-25T15:59:32;11.77;;;2.27;;
16119;SDS011;12670;53.502;10.252;2023-04-25T16:02:34;12.20;;;2.33;;
16119;SDS011;12670;53.502;10.252;2023-04-25T16:05:37;9.53;;;2.10;;
16119;SDS011;12670;53.502;10.252;2023-04-25T16:08:41;13.83;;;2.00;;
16119;SDS011;12670;53.502;10.252;2023-04-25T16:11:46;12.43;;;1.80;;
16119;SDS011;12670;53.502;10.252;2023-04-25T16:14:49;9.43;;;1.53;;
16119;SDS011;12670;53.502;10.252;2023-04-25T16:17:53;8.70;;;1.70;;
16119;SDS011;12670;53.502;10.252;2023-04-25T16:20:57;6.33;;;1.37;;
16119;SDS011;12670;53.502;10.252;2023-04-25T16:24:00;10.87;;;1.60;;
16119;SDS011;12670;53.502;10.252;2023-04-25T16:27:04;9.57;;;1.60;;
16119;SDS011;12670;53.502;10.252;2023-04-25T16:30:08;6.77;;;1.47;;
16119;SDS011;12670;53.502;10.252;2023-04-25T16:33:11;10.00;;;1.90;;
16119;SDS011;12670;53.502;10.252;2023-04-25T16:36:14;6.47;;;1.50;;
16119;SDS011;12670;53.502;10.252;2023-04-25T16:39:17;7.47;;;1.63;;
16119;SDS011;12670;53.502;10.252;2023-04-25T16:42:23;9.13;;;1.60;;
16119;SDS011;12670;53.502;10.252;2023-04-25T16:45:26;10.37;;;2.00;;
16119;SDS011;12670;53.502;10.252;2023-04-25T16:48:28;6.93;;;1.30;;
16119;SDS011;12670;53.502;10.252;2023-04-25T16:51:31;5.07;;;1.60;;
16119;SDS011;12670;53.502;10.252;2023-04-25T16:54:34;8.77;;;1.50;;
16119;SDS011;12670;53.502;10.252;2023-04-25T16:57:38;10.77;;;1.90;;
16119;SDS011;12670;53.502;10.252;2023-04-25T17:00:41;10.77;;;1.90;;
16119;SDS011;12670;53.502;10.252;2023-04-25T17:03:44;7.97;;;1.63;;
16119;SDS011;12670;53.502;10.252;2023-04-25T17:06:47;7.53;;;1.80;;
16119;SDS011;12670;53.502;10.252;2023-04-25T17:09:50;7.83;;;1.90;;
16119;SDS011;12670;53.502;10.252;2023-04-25T17:12:54;7.87;;;1.57;;
16119;SDS011;12670;53.502;10.252;2023-04-25T17:15:57;11.50;;;1.80;;
16119;SDS011;12670;53.502;10.252;2023-04-25T17:18:59;4.50;;;1.30;;
16119;SDS011;12670;53.502;10.252;2023-04-25T17:22:02;9.77;;;1.50;;
16119;SDS011;12670;53.502;10.252;2023-04-25T17:25:06;7.33;;;1.80;;
16119;SDS011;12670;53.502;10.252;2023-04-25T17:28:11;7.97;;;1.53;;
16119;SDS011;12670;53.502;10.252;2023-04-25T17:31:14;11.03;;;1.90;;
16119;SDS011;12670;53.502;10.252;2023-04-25T17:34:17;8.57;;;2.20;;
16119;SDS011;12670;53.502;10.252;2023-04-25T17:37:19;11.73;;;1.77;;
16119;SDS011;12670;53.502;10.252;2023-04-25T17:40:22;8.53;;;1.53;;
16119;SDS011;12670;53.502;10.252;2023-04-25T17:43:27;5.23;;;1.40;;
16119;SDS011;12670;53.502;10.252;2023-04-25T17:46:30;8.07;;;1.40;;
16119;SDS011;12670;53.502;10.252;2023-04-25T17:49:32;7.77;;;1.37;;
16119;SDS011;12670;53.502;10.252;2023-04-25T17:52:35;7.40;;;1.70;;
16119;SDS011;12670;53.502;10.252;2023-04-25T17:55:38;7.70;;;1.57;;
16119;SDS011;12670;53.502;10.252;2023-04-25T17:58:45;6.87;;;1.43;;
16119;SDS011;12670;53.502;10.252;2023-04-25T18:01:47;4.47;;;1.37;;